createdAt,value
2018-09-11T00:00:36.833Z,19.09
2018-09-11T00:01:36.802Z,19.13
2018-09-11T00:02:36.819Z,19.12
2018-09-11T00:03:36.762Z,19.12
2018-09-11T00:04:36.766Z,19.19
2018-09-11T00:05:36.744Z,19.13
2018-09-11T00:06:36.772Z,19.16
2018-09-11T00:07:36.721Z,19.09
2018-09-11T00:08:36.705Z,19.05
2018-09-11T00:09:36.740Z,19.04
2018-09-11T00:10:36.696Z,19.08
2018-09-11T00:11:36.672Z,19.08
2018-09-11T00:12:36.718Z,19.05
2018-09-11T00:13:36.645Z,19.13
2018-09-11T00:14:36.636Z,19.15
2018-09-11T00:15:36.654Z,19.08
2018-09-11T00:16:36.646Z,19.12
2018-09-11T00:17:36.607Z,19.12
2018-09-11T00:18:36.623Z,19.09
2018-09-11T00:19:36.610Z,19.09
2018-09-11T00:20:36.577Z,19.16
2018-09-11T00:21:36.576Z,19.12
2018-09-11T00:22:36.546Z,19.12
2018-09-11T00:23:36.565Z,19.09
2018-09-11T00:24:36.536Z,19.08
2018-09-11T00:25:36.516Z,19.09
2018-09-11T00:26:36.517Z,19.13
2018-09-11T00:27:36.507Z,19.13
2018-09-11T00:28:36.485Z,19.13
2018-09-11T00:29:36.496Z,19.15
2018-09-11T00:30:36.464Z,19.12
2018-09-11T00:31:36.442Z,19.12
2018-09-11T00:32:36.439Z,19.09
2018-09-11T00:33:36.449Z,19.04
2018-09-11T00:34:36.427Z,19.08
2018-09-11T00:35:36.403Z,19.01
2018-09-11T00:36:36.392Z,19.12
2018-09-11T00:37:36.382Z,19.09
2018-09-11T00:38:36.393Z,19.08
2018-09-11T00:39:36.376Z,19.12
2018-09-11T00:40:36.346Z,19.15
2018-09-11T00:41:36.333Z,19.08
2018-09-11T00:42:36.332Z,19.08
2018-09-11T00:43:36.322Z,19.08
2018-09-11T00:44:36.317Z,19.08
2018-09-11T00:45:36.289Z,19.09
2018-09-11T00:46:36.287Z,19.09
2018-09-11T00:47:36.313Z,19.08
2018-09-11T00:48:36.268Z,19.07
2018-09-11T00:49:36.256Z,19.07
2018-09-11T00:50:36.246Z,19.00
2018-09-11T00:51:36.217Z,19.08
2018-09-11T00:52:36.235Z,19.00
2018-09-11T00:53:36.235Z,18.98
2018-09-11T00:54:36.201Z,19.07
2018-09-11T00:55:36.204Z,19.04
2018-09-11T00:56:36.161Z,19.07
2018-09-11T00:57:36.153Z,19.09
2018-09-11T00:58:36.141Z,19.04
2018-09-11T00:59:36.145Z,19.07
2018-09-11T01:00:36.138Z,19.04
2018-09-11T01:01:36.107Z,19.08
2018-09-11T01:02:36.100Z,19.09
2018-09-11T01:03:36.110Z,19.07
2018-09-11T01:04:36.114Z,19.08
2018-09-11T01:05:36.080Z,19.00
2018-09-11T01:06:36.074Z,19.00
2018-09-11T01:07:36.046Z,18.94
2018-09-11T01:08:36.044Z,18.89
2018-09-11T01:09:36.048Z,18.94
2018-09-11T01:10:36.054Z,18.91
2018-09-11T01:11:36.011Z,18.96
2018-09-11T01:12:35.985Z,18.96
2018-09-11T01:13:35.998Z,18.91
2018-09-11T01:14:35.967Z,19.04
2018-09-11T01:15:35.988Z,18.98
2018-09-11T01:16:35.993Z,19.01
2018-09-11T01:17:35.932Z,19.01
2018-09-11T01:18:35.919Z,18.96
2018-09-11T01:19:35.911Z,19.07
2018-09-11T01:20:35.902Z,18.93
2018-09-11T01:21:35.914Z,18.96
2018-09-11T01:22:35.921Z,19.01
2018-09-11T01:23:35.892Z,18.96
2018-09-11T01:24:35.885Z,19.04
2018-09-11T01:25:35.840Z,19.07
2018-09-11T01:26:35.863Z,19.08
2018-09-11T01:27:35.865Z,19.09
2018-09-11T01:28:35.805Z,19.08
2018-09-11T01:29:35.805Z,19.09
2018-09-11T01:30:35.798Z,19.08
2018-09-11T01:31:35.775Z,18.98
2018-09-11T01:32:35.783Z,18.94
2018-09-11T01:33:35.769Z,19.15
2018-09-11T01:34:35.753Z,19.07
2018-09-11T01:35:35.756Z,18.96
2018-09-11T01:36:35.735Z,18.91
2018-09-11T01:37:35.737Z,18.91
2018-09-11T01:38:35.718Z,18.94
2018-09-11T01:39:35.695Z,18.93
2018-09-11T01:40:35.674Z,18.93
2018-09-11T01:41:35.699Z,18.91
2018-09-11T01:42:35.677Z,18.94
2018-09-11T01:43:35.637Z,19.09
2018-09-11T01:44:35.629Z,18.94
2018-09-11T01:45:35.616Z,18.94
2018-09-11T01:46:35.602Z,18.96
2018-09-11T01:47:35.605Z,18.98
2018-09-11T01:48:35.614Z,18.93
2018-09-11T01:49:35.599Z,18.91
2018-09-11T01:50:35.590Z,18.93
2018-09-11T01:51:35.572Z,19.00
2018-09-11T01:52:35.544Z,18.88
2018-09-11T01:53:35.549Z,19.04
2018-09-11T01:54:35.539Z,18.96
2018-09-11T01:55:35.529Z,18.88
2018-09-11T01:56:35.519Z,18.75
2018-09-11T01:57:35.489Z,18.85
2018-09-11T01:58:35.497Z,18.98
2018-09-11T02:00:44.749Z,18.93
2018-09-11T02:01:44.712Z,18.98
2018-09-11T02:02:44.697Z,18.86
2018-09-11T02:03:44.707Z,18.93
2018-09-11T02:04:44.682Z,18.94
2018-09-11T02:05:44.681Z,18.94
2018-09-11T02:06:44.674Z,18.89
2018-09-11T02:07:44.646Z,18.85
2018-09-11T02:08:44.649Z,18.86
2018-09-11T02:09:44.642Z,18.85
2018-09-11T02:10:44.629Z,18.94
2018-09-11T02:11:44.600Z,18.97
2018-09-11T02:12:44.592Z,18.93
2018-09-11T02:13:44.600Z,18.86
2018-09-11T02:14:44.588Z,18.93
2018-09-11T02:15:44.559Z,18.91
2018-09-11T02:16:44.545Z,18.97
2018-09-11T02:17:44.540Z,18.88
2018-09-11T02:18:44.523Z,18.94
2018-09-11T02:19:44.560Z,18.94
2018-09-11T02:20:44.513Z,19.00
2018-09-11T02:21:44.491Z,18.96
2018-09-11T02:22:44.488Z,18.94
2018-09-11T02:23:44.487Z,18.97
2018-09-11T02:24:44.481Z,18.94
2018-09-11T02:25:44.452Z,18.96
2018-09-11T02:26:44.439Z,18.91
2018-09-11T02:27:44.438Z,18.91
2018-09-11T02:28:44.469Z,19.07
2018-09-11T02:29:44.416Z,19.07
2018-09-11T02:30:44.427Z,19.00
2018-09-11T02:31:44.402Z,18.96
2018-09-11T02:32:44.384Z,18.96
2018-09-11T02:33:44.359Z,18.97
2018-09-11T02:34:44.380Z,18.93
2018-09-11T02:35:44.447Z,19.00
2018-09-11T02:36:44.327Z,18.94
2018-09-11T02:37:44.328Z,18.94
2018-09-11T02:38:44.325Z,18.86
2018-09-11T02:39:44.294Z,18.89
2018-09-11T02:40:44.318Z,18.91
2018-09-11T02:41:44.272Z,18.93
2018-09-11T02:42:44.281Z,18.93
2018-09-11T02:43:44.251Z,18.93
2018-09-11T02:44:44.252Z,18.96
2018-09-11T02:45:44.251Z,18.94
2018-09-11T02:46:44.217Z,18.98
2018-09-11T02:47:44.232Z,18.88
2018-09-11T02:48:44.222Z,18.89
2018-09-11T02:49:44.212Z,18.85
2018-09-11T02:50:44.196Z,18.94
2018-09-11T02:51:44.165Z,18.98
2018-09-11T02:52:44.165Z,18.91
2018-09-11T02:53:44.149Z,18.85
2018-09-11T02:54:44.139Z,18.85
2018-09-11T02:55:44.162Z,18.88
2018-09-11T02:56:44.137Z,18.98
2018-09-11T02:57:44.101Z,18.91
2018-09-11T02:58:44.115Z,18.82
2018-09-11T02:59:44.076Z,18.81
2018-09-11T03:00:44.084Z,18.82
2018-09-11T03:01:44.095Z,18.85
2018-09-11T03:02:44.042Z,18.79
2018-09-11T03:03:44.062Z,18.82
2018-09-11T03:04:44.035Z,18.85
2018-09-11T03:05:44.020Z,18.85
2018-09-11T03:06:44.021Z,18.81
2018-09-11T03:07:43.985Z,18.89
2018-09-11T03:08:43.994Z,18.85
2018-09-11T03:09:43.981Z,18.86
2018-09-11T03:10:43.961Z,18.71
2018-09-11T03:11:43.956Z,18.75
2018-09-11T03:12:43.931Z,18.85
2018-09-11T03:13:43.918Z,18.86
2018-09-11T03:14:43.929Z,18.88
2018-09-11T03:15:43.908Z,18.85
2018-09-11T03:16:43.907Z,18.82
2018-09-11T03:17:43.882Z,18.86
2018-09-11T03:18:43.934Z,18.89
2018-09-11T03:19:43.857Z,18.86
2018-09-11T03:20:43.841Z,18.93
2018-09-11T03:21:43.845Z,18.93
2018-09-11T03:22:43.843Z,18.86
2018-09-11T03:23:43.814Z,18.88
2018-09-11T03:24:43.797Z,18.88
2018-09-11T03:25:43.805Z,18.94
2018-09-11T03:26:43.813Z,18.89
2018-09-11T03:27:43.789Z,18.98
2018-09-11T03:28:43.777Z,18.96
2018-09-11T03:29:43.740Z,18.93
2018-09-11T03:31:59.914Z,18.93
2018-09-11T03:32:59.938Z,18.89
2018-09-11T03:33:59.890Z,18.96
2018-09-11T03:34:59.881Z,18.82
2018-09-11T03:35:59.870Z,18.76
2018-09-11T03:36:59.856Z,18.74
2018-09-11T03:37:59.856Z,18.79
2018-09-11T03:38:59.848Z,18.86
2018-09-11T03:39:59.821Z,18.78
2018-09-11T03:40:59.814Z,18.82
2018-09-11T03:41:59.805Z,18.86
2018-09-11T03:42:59.807Z,18.78
2018-09-11T03:43:59.853Z,18.76
2018-09-11T03:44:59.763Z,18.71
2018-09-11T03:45:59.759Z,18.78
2018-09-11T03:46:59.746Z,18.83
2018-09-11T03:47:59.731Z,18.83
2018-09-11T03:48:59.746Z,18.79
2018-09-11T03:49:59.715Z,18.83
2018-09-11T03:50:59.700Z,18.88
2018-09-11T03:51:59.698Z,18.85
2018-09-11T03:52:59.679Z,18.86
2018-09-11T03:53:59.678Z,18.88
2018-09-11T03:54:59.653Z,18.86
2018-09-11T03:55:59.637Z,18.82
2018-09-11T03:56:59.628Z,18.81
2018-09-11T03:57:59.633Z,18.86
2018-09-11T03:58:59.630Z,18.82
2018-09-11T03:59:59.593Z,18.78
2018-09-11T04:00:59.584Z,18.85
2018-09-11T04:01:59.572Z,18.81
2018-09-11T04:02:59.555Z,18.82
2018-09-11T04:03:59.560Z,18.94
2018-09-11T04:04:59.540Z,18.96
2018-09-11T04:05:59.526Z,18.89
2018-09-11T04:06:59.531Z,18.85
2018-09-11T04:07:59.501Z,18.88
2018-09-11T04:08:59.512Z,18.78
2018-09-11T04:09:59.480Z,18.83
2018-09-11T04:10:59.471Z,18.85
2018-09-11T04:11:59.464Z,18.88
2018-09-11T04:12:59.447Z,18.81
2018-09-11T04:13:59.434Z,18.82
2018-09-11T04:14:59.436Z,18.82
2018-09-11T04:15:59.411Z,18.85
2018-09-11T04:16:59.399Z,18.85
2018-09-11T04:17:59.392Z,18.79
2018-09-11T04:18:59.408Z,18.71
2018-09-11T04:19:59.369Z,18.70
2018-09-11T04:20:59.359Z,18.78
2018-09-11T04:21:59.342Z,18.71
2018-09-11T04:22:59.331Z,18.70
2018-09-11T04:23:59.326Z,18.76
2018-09-11T04:24:59.325Z,18.67
2018-09-11T04:25:59.311Z,18.76
2018-09-11T04:26:59.282Z,18.78
2018-09-11T04:27:59.275Z,18.74
2018-09-11T04:28:59.265Z,18.68
2018-09-11T04:29:59.274Z,18.75
2018-09-11T04:30:59.239Z,18.76
2018-09-11T04:31:59.228Z,18.81
2018-09-11T04:32:59.215Z,18.76
2018-09-11T04:33:59.212Z,18.75
2018-09-11T04:34:59.224Z,18.75
2018-09-11T04:35:59.183Z,18.76
2018-09-11T04:36:59.170Z,18.86
2018-09-11T04:37:59.158Z,18.85
2018-09-11T04:38:59.149Z,18.76
2018-09-11T04:39:59.160Z,18.75
2018-09-11T04:40:59.121Z,18.70
2018-09-11T04:41:59.119Z,18.78
2018-09-11T04:42:59.209Z,18.74
2018-09-11T04:43:59.094Z,18.71
2018-09-11T04:44:59.084Z,18.75
2018-09-11T04:45:59.083Z,18.74
2018-09-11T04:46:59.071Z,18.71
2018-09-11T04:47:59.040Z,18.70
2018-09-11T04:48:59.031Z,18.66
2018-09-11T04:49:59.020Z,18.66
2018-09-11T04:50:59.028Z,18.60
2018-09-11T04:51:59.003Z,18.67
2018-09-11T04:52:58.988Z,18.71
2018-09-11T04:53:58.975Z,18.71
2018-09-11T04:54:58.962Z,18.75
2018-09-11T04:55:59.026Z,18.58
2018-09-11T04:56:58.943Z,18.63
2018-09-11T04:57:58.926Z,18.64
2018-09-11T04:58:58.917Z,18.66
2018-09-11T04:59:58.905Z,18.61
2018-09-11T05:00:58.914Z,18.57
2018-09-11T05:01:58.885Z,18.57
2018-09-11T05:02:58.886Z,18.68
2018-09-11T05:03:58.861Z,18.64
2018-09-11T05:04:58.853Z,18.66
2018-09-11T05:05:58.857Z,18.66
2018-09-11T05:06:58.827Z,18.71
2018-09-11T05:07:58.813Z,18.66
2018-09-11T05:08:58.804Z,18.57
2018-09-11T05:09:58.805Z,18.67
2018-09-11T05:10:58.820Z,18.74
2018-09-11T05:11:58.771Z,18.60
2018-09-11T05:12:58.758Z,18.58
2018-09-11T05:13:58.744Z,18.70
2018-09-11T05:14:58.736Z,18.70
2018-09-11T05:15:58.727Z,18.78
2018-09-11T05:16:58.731Z,18.74
2018-09-11T05:17:58.698Z,18.74
2018-09-11T05:18:58.711Z,18.64
2018-09-11T05:19:58.678Z,18.67
2018-09-11T05:20:58.668Z,18.57
2018-09-11T05:21:58.665Z,18.66
2018-09-11T05:22:58.646Z,18.70
2018-09-11T05:23:58.632Z,18.61
2018-09-11T05:24:58.619Z,18.63
2018-09-11T05:25:58.612Z,18.68
2018-09-11T05:26:58.611Z,18.81
2018-09-11T05:27:58.584Z,18.79
2018-09-11T05:28:58.578Z,18.67
2018-09-11T05:29:58.570Z,18.75
2018-09-11T05:30:58.570Z,18.76
2018-09-11T05:31:58.557Z,18.70
2018-09-11T05:32:58.540Z,18.71
2018-09-11T05:33:58.536Z,18.70
2018-09-11T05:34:58.529Z,18.78
2018-09-11T05:35:58.494Z,18.63
2018-09-11T05:36:58.510Z,18.67
2018-09-11T05:37:58.479Z,18.70
2018-09-11T05:38:58.510Z,18.70
2018-09-11T05:39:58.453Z,18.74
2018-09-11T05:40:58.445Z,18.66
2018-09-11T05:41:58.429Z,18.63
2018-09-11T05:42:58.431Z,18.64
2018-09-11T05:43:58.406Z,18.67
2018-09-11T05:44:58.393Z,18.71
2018-09-11T05:45:58.381Z,18.76
2018-09-11T05:46:58.401Z,18.83
2018-09-11T05:47:58.380Z,18.86
2018-09-11T05:48:58.354Z,18.76
2018-09-11T05:49:58.339Z,18.74
2018-09-11T05:50:58.327Z,18.70
2018-09-11T05:51:58.337Z,18.82
2018-09-11T05:52:58.325Z,18.71
2018-09-11T05:53:58.294Z,18.67
2018-09-11T05:54:58.284Z,18.68
2018-09-11T05:55:58.273Z,18.79
2018-09-11T05:56:58.258Z,18.76
2018-09-11T05:57:58.247Z,18.71
2018-09-11T05:58:58.257Z,18.76
2018-09-11T05:59:58.224Z,18.78
2018-09-11T06:00:58.217Z,18.83
2018-09-11T06:01:58.202Z,18.74
2018-09-11T06:02:58.227Z,18.85
2018-09-11T06:03:58.191Z,18.79
2018-09-11T06:04:58.168Z,18.79
2018-09-11T06:05:58.167Z,18.82
2018-09-11T06:06:58.146Z,18.81
2018-09-11T06:07:58.137Z,18.86
2018-09-11T06:08:58.166Z,18.81
2018-09-11T06:09:58.121Z,18.82
2018-09-11T06:10:58.099Z,18.81
2018-09-11T06:11:58.088Z,18.98
2018-09-11T06:12:58.104Z,18.91
2018-09-11T06:13:58.079Z,18.94
2018-09-11T06:14:58.054Z,18.82
2018-09-11T06:15:58.047Z,18.86
2018-09-11T06:16:58.036Z,18.85
2018-09-11T06:17:58.020Z,18.83
2018-09-11T06:18:58.050Z,18.94
2018-09-11T06:19:57.998Z,18.94
2018-09-11T06:20:57.986Z,18.98
2018-09-11T06:21:57.976Z,18.97
2018-09-11T06:22:57.969Z,18.94
2018-09-11T06:23:57.961Z,18.98
2018-09-11T06:24:57.959Z,19.05
2018-09-11T06:25:57.932Z,18.94
2018-09-11T06:26:57.919Z,19.00
2018-09-11T06:27:57.908Z,18.94
2018-09-11T06:28:57.968Z,18.97
2018-09-11T06:29:57.895Z,18.93
2018-09-11T06:30:57.878Z,18.98
2018-09-11T06:31:57.875Z,18.97
2018-09-11T06:32:57.853Z,19.12
2018-09-11T06:33:57.857Z,18.98
2018-09-11T06:34:57.844Z,19.05
2018-09-11T06:35:57.820Z,19.01
2018-09-11T06:36:57.869Z,19.13
2018-09-11T06:37:57.794Z,19.09
2018-09-11T06:38:57.788Z,19.07
2018-09-11T06:39:57.785Z,19.12
2018-09-11T06:40:57.821Z,19.09
2018-09-11T06:41:57.755Z,19.05
2018-09-11T06:42:57.736Z,18.98
2018-09-11T06:43:57.725Z,19.01
2018-09-11T06:44:57.722Z,18.97
2018-09-11T06:45:57.724Z,18.97
2018-09-11T06:46:57.752Z,19.08
2018-09-11T06:47:57.688Z,19.07
2018-09-11T06:48:57.665Z,19.05
2018-09-11T06:49:57.653Z,19.09
2018-09-11T06:50:57.658Z,19.15
2018-09-11T06:51:57.632Z,19.07
2018-09-11T06:52:57.618Z,19.08
2018-09-11T06:53:57.613Z,19.01
2018-09-11T06:54:57.621Z,19.05
2018-09-11T06:55:57.602Z,19.04
2018-09-11T06:56:57.577Z,18.98
2018-09-11T06:57:57.566Z,18.97
2018-09-11T06:58:57.608Z,19.12
2018-09-11T06:59:57.542Z,19.09
2018-09-11T07:00:57.550Z,19.12
2018-09-11T07:01:57.591Z,19.19
2018-09-11T07:02:57.508Z,19.19
2018-09-11T07:03:57.496Z,19.20
2018-09-11T07:04:57.481Z,19.08
2018-09-11T07:05:57.484Z,19.20
2018-09-11T07:06:57.455Z,19.20
2018-09-11T07:07:57.448Z,19.07
2018-09-11T07:08:57.437Z,19.20
2018-09-11T07:09:57.425Z,19.19
2018-09-11T07:10:57.434Z,19.16
2018-09-11T07:11:57.403Z,19.30
2018-09-11T07:12:57.391Z,19.22
2018-09-11T07:13:57.382Z,19.20
2018-09-11T07:14:57.368Z,19.22
2018-09-11T07:15:57.431Z,19.13
2018-09-11T07:16:57.343Z,19.19
2018-09-11T07:17:57.329Z,19.31
2018-09-11T07:18:57.322Z,19.24
2018-09-11T07:19:57.435Z,19.22
2018-09-11T07:20:57.296Z,19.20
2018-09-11T07:21:57.297Z,19.20
2018-09-11T07:22:57.276Z,19.15
2018-09-11T07:23:57.268Z,19.27
2018-09-11T07:24:57.247Z,19.19
2018-09-11T07:25:57.287Z,19.31
2018-09-11T07:26:57.240Z,19.15
2018-09-11T07:27:57.216Z,19.20
2018-09-11T07:28:57.200Z,19.20
2018-09-11T07:29:57.194Z,19.26
2018-09-11T07:30:57.180Z,19.30
2018-09-11T07:31:57.186Z,19.26
2018-09-11T07:32:57.161Z,19.26
2018-09-11T07:33:57.147Z,19.19
2018-09-11T07:34:57.133Z,19.27
2018-09-11T07:35:57.122Z,19.32
2018-09-11T07:36:57.125Z,19.34
2018-09-11T07:37:57.149Z,19.27
2018-09-11T07:38:57.093Z,19.32
2018-09-11T07:39:57.081Z,19.24
2018-09-11T07:40:57.068Z,19.41
2018-09-11T07:41:57.094Z,19.35
2018-09-11T07:42:57.044Z,19.34
2018-09-11T07:43:57.032Z,19.24
2018-09-11T07:44:57.021Z,19.37
2018-09-11T07:45:57.013Z,19.34
2018-09-11T07:46:56.996Z,19.35
2018-09-11T07:47:57.004Z,19.35
2018-09-11T07:48:56.974Z,19.35
2018-09-11T07:49:56.966Z,19.30
2018-09-11T07:50:56.954Z,19.37
2018-09-11T07:51:56.943Z,19.37
2018-09-11T07:52:57.040Z,19.41
2018-09-11T07:53:56.921Z,19.37
2018-09-11T07:54:56.951Z,19.34
2018-09-11T07:55:56.896Z,19.37
2018-09-11T07:56:56.885Z,19.31
2018-09-11T07:57:56.930Z,19.38
2018-09-11T07:58:56.876Z,19.30
2018-09-11T07:59:56.857Z,19.35
2018-09-11T08:00:56.860Z,19.30
2018-09-11T08:01:56.847Z,19.39
2018-09-11T08:02:56.869Z,19.35
2018-09-11T08:03:56.811Z,19.31
2018-09-11T08:04:56.793Z,19.37
2018-09-11T08:05:56.782Z,19.32
2018-09-11T08:06:56.770Z,19.37
2018-09-11T08:07:56.777Z,19.37
2018-09-11T08:08:56.748Z,19.32
2018-09-11T08:09:56.735Z,19.31
2018-09-11T08:10:56.735Z,19.32
2018-09-11T08:11:56.731Z,19.34
2018-09-11T08:12:56.729Z,19.37
2018-09-11T08:13:56.704Z,19.38
2018-09-11T08:14:56.703Z,19.34
2018-09-11T08:15:56.707Z,19.32
2018-09-11T08:16:56.656Z,19.34
2018-09-11T08:17:56.677Z,19.39
2018-09-11T08:18:56.640Z,19.34
2018-09-11T08:19:56.700Z,19.34
2018-09-11T08:20:56.620Z,19.34
2018-09-11T08:21:56.614Z,19.34
2018-09-11T08:22:56.629Z,19.38
2018-09-11T08:23:56.595Z,19.32
2018-09-11T08:24:56.586Z,19.37
2018-09-11T08:25:56.559Z,19.34
2018-09-11T08:26:56.586Z,19.32
2018-09-11T08:27:56.587Z,19.41
2018-09-11T08:28:56.522Z,19.34
2018-09-11T08:29:56.521Z,19.35
2018-09-11T08:30:56.510Z,19.35
2018-09-11T08:31:56.487Z,19.34
2018-09-11T08:32:56.492Z,19.37
2018-09-11T08:33:56.496Z,19.39
2018-09-11T08:34:56.463Z,19.38
2018-09-11T08:35:56.444Z,19.34
2018-09-11T08:36:56.430Z,19.37
2018-09-11T08:37:56.433Z,19.35
2018-09-11T08:38:56.430Z,19.41
2018-09-11T08:39:56.419Z,19.34
2018-09-11T08:40:56.452Z,19.38
2018-09-11T08:41:56.373Z,19.38
2018-09-11T08:42:56.379Z,19.41
2018-09-11T08:43:56.390Z,19.32
2018-09-11T08:44:56.351Z,19.39
2018-09-11T08:45:56.328Z,19.37
2018-09-11T08:46:56.331Z,19.35
2018-09-11T08:47:56.325Z,19.35
2018-09-11T08:48:56.300Z,19.38
2018-09-11T08:49:56.325Z,19.35
2018-09-11T08:50:56.273Z,19.35
2018-09-11T08:51:56.293Z,19.39
2018-09-11T08:52:56.258Z,19.38
2018-09-11T08:53:56.242Z,19.44
2018-09-11T08:54:56.251Z,19.35
2018-09-11T08:55:56.264Z,19.41
2018-09-11T08:56:56.210Z,19.38
2018-09-11T08:57:56.195Z,19.41
2018-09-11T08:58:56.182Z,19.41
2018-09-11T08:59:56.207Z,19.41
2018-09-11T09:00:56.173Z,19.30
2018-09-11T09:01:56.152Z,19.39
2018-09-11T09:02:56.139Z,19.37
2018-09-11T09:03:56.143Z,19.37
2018-09-11T09:04:56.133Z,19.37
2018-09-11T09:05:56.114Z,19.35
2018-09-11T09:06:56.189Z,19.49
2018-09-11T09:07:56.102Z,19.38
2018-09-11T09:08:56.098Z,19.47
2018-09-11T09:09:56.137Z,19.31
2018-09-11T09:10:56.055Z,19.37
2018-09-11T09:11:56.052Z,19.38
2018-09-11T09:12:56.069Z,19.41
2018-09-11T09:13:56.027Z,19.44
2018-09-11T09:14:56.033Z,19.44
2018-09-11T09:15:55.993Z,19.35
2018-09-11T09:16:55.986Z,19.41
2018-09-11T09:17:55.982Z,19.39
2018-09-11T09:18:55.973Z,19.41
2018-09-11T09:19:55.974Z,19.44
2018-09-11T09:20:55.993Z,19.44
2018-09-11T09:21:55.932Z,19.41
2018-09-11T09:22:55.917Z,19.38
2018-09-11T09:23:55.903Z,19.38
2018-09-11T09:24:55.932Z,19.41
2018-09-11T09:25:55.907Z,19.44
2018-09-11T09:26:55.883Z,19.44
2018-09-11T09:27:55.857Z,19.47
2018-09-11T09:28:55.845Z,19.53
2018-09-11T09:29:55.832Z,19.54
2018-09-11T09:30:55.837Z,19.49
2018-09-11T09:31:55.851Z,19.50
2018-09-11T09:32:55.797Z,19.56
2018-09-11T09:33:55.791Z,19.49
2018-09-11T09:34:55.796Z,19.49
2018-09-11T09:35:55.807Z,19.53
2018-09-11T09:36:55.800Z,19.49
2018-09-11T09:37:55.766Z,19.54
2018-09-11T09:38:55.755Z,19.53
2018-09-11T09:39:55.740Z,19.56
2018-09-11T09:40:55.715Z,19.54
2018-09-11T09:41:55.718Z,19.57
2018-09-11T09:42:55.705Z,19.62
2018-09-11T09:43:55.695Z,19.57
2018-09-11T09:44:55.682Z,19.64
2018-09-11T09:45:55.671Z,19.64
2018-09-11T09:46:55.687Z,19.57
2018-09-11T09:47:55.632Z,19.59
2018-09-11T09:48:55.629Z,19.63
2018-09-11T09:49:55.635Z,19.64
2018-09-11T09:50:55.657Z,19.67
2018-09-11T09:51:55.610Z,19.67
2018-09-11T09:52:55.610Z,19.63
2018-09-11T09:53:55.571Z,19.70
2018-09-11T09:54:55.554Z,19.57
2018-09-11T09:55:55.542Z,19.67
2018-09-11T09:56:55.553Z,19.64
2018-09-11T09:57:55.562Z,19.71
2018-09-11T09:58:55.516Z,19.63
2018-09-11T09:59:55.496Z,19.62
2018-09-11T10:00:55.504Z,19.70
2018-09-11T10:01:55.528Z,19.72
2018-09-11T10:02:55.489Z,19.64
2018-09-11T10:03:55.453Z,19.62
2018-09-11T10:04:55.567Z,19.63
2018-09-11T10:05:55.426Z,19.59
2018-09-11T10:06:55.422Z,19.63
2018-09-11T10:07:55.437Z,19.67
2018-09-11T10:08:55.398Z,19.64
2018-09-11T10:09:55.389Z,19.75
2018-09-11T10:10:55.397Z,19.72
2018-09-11T10:11:55.442Z,19.74
2018-09-11T10:12:55.367Z,19.74
2018-09-11T10:13:55.337Z,19.77
2018-09-11T10:14:55.339Z,19.74
2018-09-11T10:15:55.322Z,19.78
2018-09-11T10:16:55.339Z,19.72
2018-09-11T10:17:55.313Z,19.79
2018-09-11T10:18:55.288Z,19.74
2018-09-11T10:19:55.299Z,19.84
2018-09-11T10:20:55.279Z,19.84
2018-09-11T10:21:55.264Z,19.89
2018-09-11T10:22:55.273Z,19.92
2018-09-11T10:23:55.229Z,19.89
2018-09-11T10:24:55.219Z,19.86
2018-09-11T10:25:55.207Z,19.84
2018-09-11T10:26:55.213Z,19.89
2018-09-11T10:27:55.202Z,19.89
2018-09-11T10:28:55.213Z,19.86
2018-09-11T10:29:55.162Z,19.90
2018-09-11T10:30:55.164Z,19.89
2018-09-11T10:31:55.136Z,19.82
2018-09-11T10:32:55.165Z,19.90
2018-09-11T10:33:55.171Z,19.86
2018-09-11T10:34:55.121Z,19.92
2018-09-11T10:35:55.117Z,19.89
2018-09-11T10:36:55.086Z,19.84
2018-09-11T10:37:55.089Z,19.92
2018-09-11T10:38:55.080Z,19.90
2018-09-11T10:39:55.046Z,19.86
2018-09-11T10:40:55.035Z,19.90
2018-09-11T10:41:55.044Z,19.84
2018-09-11T10:42:55.031Z,19.90
2018-09-11T10:43:55.018Z,19.89
2018-09-11T10:44:55.098Z,19.92
2018-09-11T10:45:54.981Z,19.97
2018-09-11T10:46:54.970Z,19.99
2018-09-11T10:47:54.955Z,20.05
2018-09-11T10:48:55.038Z,19.92
2018-09-11T10:49:54.948Z,20.00
2018-09-11T10:50:54.926Z,19.94
2018-09-11T10:51:55.014Z,19.97
2018-09-11T10:52:54.928Z,20.07
2018-09-11T10:53:54.942Z,20.00
2018-09-11T10:54:54.914Z,20.07
2018-09-11T10:55:54.871Z,19.99
2018-09-11T10:56:54.859Z,19.96
2018-09-11T10:57:54.853Z,19.99
2018-09-11T10:58:54.852Z,20.04
2018-09-11T10:59:54.843Z,19.96
2018-09-11T11:00:54.839Z,20.02
2018-09-11T11:01:54.804Z,20.05
2018-09-11T11:02:54.791Z,20.07
2018-09-11T11:03:54.801Z,20.07
2018-09-11T11:04:54.803Z,20.08
2018-09-11T11:05:54.759Z,19.97
2018-09-11T11:06:54.746Z,20.05
2018-09-11T11:07:54.737Z,19.99
2018-09-11T11:08:54.731Z,20.02
2018-09-11T11:09:54.730Z,20.00
2018-09-11T11:10:54.704Z,20.05
2018-09-11T11:11:54.691Z,20.08
2018-09-11T11:12:54.696Z,20.04
2018-09-11T11:13:54.682Z,20.08
2018-09-11T11:14:54.700Z,20.12
2018-09-11T11:15:54.651Z,20.04
2018-09-11T11:16:54.641Z,20.00
2018-09-11T11:17:54.628Z,20.09
2018-09-11T11:18:54.621Z,20.09
2018-09-11T11:19:54.633Z,20.07
2018-09-11T11:20:54.608Z,20.08
2018-09-11T11:21:54.607Z,20.07
2018-09-11T11:22:54.573Z,20.11
2018-09-11T11:23:54.561Z,20.09
2018-09-11T11:24:54.556Z,20.04
2018-09-11T11:25:54.557Z,20.11
2018-09-11T11:26:54.610Z,20.15
2018-09-11T11:27:54.535Z,20.07
2018-09-11T11:28:54.541Z,20.11
2018-09-11T11:29:54.507Z,20.09
2018-09-11T11:30:54.515Z,20.07
2018-09-11T11:31:54.476Z,20.09
2018-09-11T11:32:54.464Z,19.93
2018-09-11T11:33:54.451Z,20.09
2018-09-11T11:34:54.446Z,20.08
2018-09-11T11:35:54.515Z,20.09
2018-09-11T11:36:54.624Z,20.08
2018-09-11T11:37:54.408Z,20.12
2018-09-11T11:38:54.421Z,20.05
2018-09-11T11:39:54.382Z,20.05
2018-09-11T11:40:54.393Z,20.11
2018-09-11T11:41:54.414Z,20.07
2018-09-11T11:42:54.446Z,20.08
2018-09-11T11:43:54.380Z,20.05
2018-09-11T11:44:54.328Z,20.09
2018-09-11T11:45:54.339Z,20.05
2018-09-11T11:46:54.330Z,20.08
2018-09-11T11:47:54.320Z,20.07
2018-09-11T11:48:54.281Z,20.12
2018-09-11T11:49:54.286Z,20.09
2018-09-11T11:50:54.282Z,20.09
2018-09-11T11:51:54.285Z,20.08
2018-09-11T11:52:54.256Z,20.08
2018-09-11T11:53:54.233Z,20.05
2018-09-11T11:54:54.279Z,20.12
2018-09-11T11:55:54.225Z,20.09
2018-09-11T11:56:54.204Z,20.09
2018-09-11T11:57:54.200Z,20.02
2018-09-11T11:58:54.203Z,20.05
2018-09-11T11:59:54.185Z,20.08
2018-09-11T12:00:54.165Z,20.09
2018-09-11T12:01:54.243Z,20.11
2018-09-11T12:02:54.126Z,20.14
2018-09-11T12:03:54.142Z,20.09
2018-09-11T12:04:54.109Z,20.05
2018-09-11T12:05:54.098Z,20.11
2018-09-11T12:06:54.133Z,20.04
2018-09-11T12:07:54.219Z,20.12
2018-09-11T12:08:54.060Z,20.09
2018-09-11T12:09:54.077Z,20.04
2018-09-11T12:10:54.066Z,20.08
2018-09-11T12:11:54.034Z,20.07
2018-09-11T12:12:54.019Z,20.08
2018-09-11T12:13:54.051Z,20.08
2018-09-11T12:14:53.996Z,20.08
2018-09-11T12:15:54.009Z,20.02
2018-09-11T12:16:54.061Z,20.04
2018-09-11T12:17:53.986Z,20.09
2018-09-11T12:18:53.950Z,20.08
2018-09-11T12:19:53.941Z,20.07
2018-09-11T12:20:53.935Z,20.07
2018-09-11T12:21:53.917Z,19.97
2018-09-11T12:22:53.918Z,20.07
2018-09-11T12:23:53.915Z,20.04
2018-09-11T12:24:53.914Z,19.97
2018-09-11T12:25:53.870Z,20.04
2018-09-11T12:26:53.941Z,20.07
2018-09-11T12:27:53.876Z,19.97
2018-09-11T12:28:53.842Z,20.08
2018-09-11T12:29:53.832Z,20.04
2018-09-11T12:30:53.838Z,20.05
2018-09-11T12:31:53.819Z,20.04
2018-09-11T12:32:53.818Z,19.97
2018-09-11T12:33:53.814Z,20.04
2018-09-11T12:34:53.790Z,20.00
2018-09-11T12:35:53.764Z,19.96
2018-09-11T12:36:53.750Z,20.07
2018-09-11T12:37:53.750Z,20.04
2018-09-11T12:38:53.726Z,20.02
2018-09-11T12:39:53.724Z,19.97
2018-09-11T12:40:53.714Z,20.04
2018-09-11T12:41:53.697Z,19.99
2018-09-11T12:42:53.712Z,19.96
2018-09-11T12:43:53.698Z,19.99
2018-09-11T12:44:53.675Z,20.00
2018-09-11T12:45:53.774Z,19.96
2018-09-11T12:46:53.859Z,19.99
2018-09-11T12:47:54.004Z,20.02
2018-09-11T12:48:53.633Z,19.96
2018-09-11T12:49:53.604Z,20.04
2018-09-11T12:50:53.598Z,20.08
2018-09-11T12:51:53.582Z,19.94
2018-09-11T12:52:53.598Z,19.93
2018-09-11T12:53:53.580Z,19.99
2018-09-11T12:54:53.551Z,19.99